createdAt,value
2018-08-22T00:00:05.952Z,19.99
2018-08-22T00:02:33.706Z,19.94
2018-08-22T00:05:02.047Z,19.87
2018-08-22T00:07:31.955Z,19.95
2018-08-22T00:09:59.912Z,19.88
2018-08-22T00:12:27.714Z,19.88
2018-08-22T00:14:55.577Z,19.82
2018-08-22T00:17:23.602Z,19.77
2018-08-22T00:19:51.470Z,19.70
2018-08-22T00:22:19.372Z,19.72
2018-08-22T00:24:47.902Z,19.62
2018-08-22T00:27:15.658Z,19.67
2018-08-22T00:29:43.487Z,19.60
2018-08-22T00:32:11.322Z,19.66
2018-08-22T00:34:43.059Z,19.65
2018-08-22T00:37:10.895Z,19.54
2018-08-22T00:39:38.797Z,19.48
2018-08-22T00:42:06.595Z,19.36
2018-08-22T00:44:34.342Z,19.39
2018-08-22T00:47:02.087Z,19.40
2018-08-22T00:49:29.898Z,19.37
2018-08-22T00:51:57.767Z,19.32
2018-08-22T00:54:25.591Z,19.32
2018-08-22T00:56:56.259Z,19.30
2018-08-22T00:59:24.047Z,19.24
2018-08-22T01:01:51.783Z,19.24
2018-08-22T01:04:19.591Z,19.33
2018-08-22T01:06:47.362Z,19.29
2018-08-22T01:09:15.134Z,19.23
2018-08-22T01:11:42.970Z,19.09
2018-08-22T01:14:10.899Z,19.02
2018-08-22T01:16:42.103Z,19.03
2018-08-22T01:19:09.924Z,18.99
2018-08-22T01:21:37.714Z,18.97
2018-08-22T01:24:05.515Z,18.95
2018-08-22T01:26:33.327Z,18.93
2018-08-22T01:29:01.096Z,18.92
2018-08-22T01:31:28.933Z,18.91
2018-08-22T01:33:56.687Z,18.93
2018-08-22T01:36:24.478Z,18.77
2018-08-22T01:38:52.431Z,18.78
2018-08-22T01:41:20.255Z,18.74
2018-08-22T01:43:48.040Z,18.64
2018-08-22T01:46:15.819Z,18.65
2018-08-22T01:48:43.651Z,18.61
2018-08-22T01:51:11.394Z,18.65
2018-08-22T01:53:39.219Z,18.56
2018-08-22T01:56:07.022Z,18.52
2018-08-22T01:58:34.872Z,18.47
2018-08-22T02:01:02.675Z,18.46
2018-08-22T02:03:30.572Z,18.42
2018-08-22T02:05:58.353Z,18.44
2018-08-22T02:08:26.151Z,18.43
2018-08-22T02:10:53.999Z,18.35
2018-08-22T02:13:21.807Z,18.31
2018-08-22T02:15:49.598Z,18.30
2018-08-22T02:18:17.333Z,18.27
2018-08-22T02:20:45.115Z,18.25
2018-08-22T02:23:12.959Z,18.27
2018-08-22T02:25:40.766Z,18.20
2018-08-22T02:28:08.556Z,18.29
2018-08-22T02:30:36.299Z,18.17
2018-08-22T02:33:04.187Z,18.23
2018-08-22T02:35:31.979Z,18.19
2018-08-22T02:37:59.708Z,18.12
2018-08-22T02:40:27.485Z,18.06
2018-08-22T02:42:55.394Z,18.00
2018-08-22T02:45:23.151Z,18.02
2018-08-22T02:47:50.900Z,18.07
2018-08-22T02:50:18.688Z,18.03
2018-08-22T02:52:46.515Z,17.94
2018-08-22T02:55:14.309Z,17.88
2018-08-22T02:57:42.034Z,17.90
2018-08-22T03:00:09.747Z,17.90
2018-08-22T03:02:37.595Z,17.87
2018-08-22T03:05:05.558Z,17.84
2018-08-22T03:07:33.321Z,17.72
2018-08-22T03:10:01.167Z,17.72
2018-08-22T03:12:28.915Z,17.70
2018-08-22T03:14:56.726Z,17.65
2018-08-22T03:17:24.552Z,17.62
2018-08-22T03:19:52.315Z,17.65
2018-08-22T03:22:20.044Z,17.63
2018-08-22T03:24:47.863Z,17.64
2018-08-22T03:27:15.651Z,17.65
2018-08-22T03:29:43.507Z,17.66
2018-08-22T03:32:11.326Z,17.65
2018-08-22T03:34:39.088Z,17.64
2018-08-22T03:37:06.875Z,17.66
2018-08-22T03:39:34.763Z,17.68
2018-08-22T03:42:02.567Z,17.66
2018-08-22T03:44:31.231Z,17.63
2018-08-22T03:46:59.080Z,17.62
2018-08-22T03:49:26.891Z,17.64
2018-08-22T03:51:54.724Z,17.63
2018-08-22T03:54:22.501Z,17.75
2018-08-22T03:56:50.325Z,17.61
2018-08-22T03:59:18.107Z,17.59
2018-08-22T04:01:45.891Z,17.59
2018-08-22T04:04:13.654Z,17.56
2018-08-22T04:06:41.487Z,17.59
2018-08-22T04:09:09.215Z,17.50
2018-08-22T04:11:37.047Z,17.55
2018-08-22T04:14:04.935Z,17.50
2018-08-22T04:16:32.747Z,17.49
2018-08-22T04:19:00.567Z,17.41
2018-08-22T04:21:28.411Z,17.44
2018-08-22T04:23:56.319Z,17.33
2018-08-22T04:26:24.125Z,17.36
2018-08-22T04:28:52.068Z,17.31
2018-08-22T04:31:19.885Z,17.35
2018-08-22T04:33:47.720Z,17.34
2018-08-22T04:36:15.523Z,17.35
2018-08-22T04:38:43.272Z,17.39
2018-08-22T04:41:11.134Z,17.33
2018-08-22T04:43:42.362Z,17.31
2018-08-22T04:46:10.203Z,17.36
2018-08-22T04:48:43.399Z,17.35
2018-08-22T04:51:11.295Z,17.33
2018-08-22T04:53:39.100Z,17.33
2018-08-22T04:56:07.528Z,17.35
2018-08-22T04:58:35.343Z,17.39
2018-08-22T05:01:03.205Z,17.39
2018-08-22T05:03:31.055Z,17.44
2018-08-22T05:05:58.892Z,17.44
2018-08-22T05:08:26.848Z,17.51
2018-08-22T05:10:54.701Z,17.51
2018-08-22T05:13:22.439Z,17.53
2018-08-22T05:15:50.280Z,17.56
2018-08-22T05:18:18.453Z,17.61
2018-08-22T05:20:46.280Z,17.68
2018-08-22T05:23:15.569Z,17.73
2018-08-22T05:25:55.997Z,17.79
2018-08-22T05:28:24.195Z,17.83
2018-08-22T05:30:52.011Z,17.90
2018-08-22T05:33:19.835Z,17.97
2018-08-22T05:35:47.605Z,18.01
2018-08-22T05:38:15.443Z,18.10
2018-08-22T05:40:43.955Z,18.19
2018-08-22T05:43:11.721Z,18.27
2018-08-22T05:45:39.480Z,18.42
2018-08-22T05:48:07.235Z,18.50
2018-08-22T05:50:35.028Z,18.60
2018-08-22T05:53:03.264Z,18.81
2018-08-22T05:55:31.391Z,18.94
2018-08-22T05:57:59.275Z,19.09
2018-08-22T06:00:27.108Z,19.38
2018-08-22T06:02:54.872Z,19.60
2018-08-22T06:05:22.719Z,19.81
2018-08-22T06:07:50.795Z,19.97
2018-08-22T06:10:18.755Z,20.14
2018-08-22T06:12:46.489Z,20.25
2018-08-22T06:15:14.261Z,20.37
2018-08-22T06:17:42.080Z,20.45
2018-08-22T06:20:09.825Z,20.58
2018-08-22T06:22:37.607Z,20.65
2018-08-22T06:25:05.379Z,20.69
2018-08-22T06:27:33.184Z,20.87
2018-08-22T06:30:00.948Z,20.84
2018-08-22T06:32:28.720Z,21.00
2018-08-22T06:34:56.563Z,21.05
2018-08-22T06:37:24.359Z,21.08
2018-08-22T06:39:52.203Z,21.12
2018-08-22T06:42:20.031Z,21.19
2018-08-22T06:44:48.017Z,21.24
2018-08-22T06:47:15.811Z,21.23
2018-08-22T06:49:43.589Z,21.29
2018-08-22T06:52:11.448Z,21.38
2018-08-22T06:54:39.305Z,21.42
2018-08-22T06:57:07.233Z,21.51
2018-08-22T06:59:34.915Z,21.56
2018-08-22T07:02:02.679Z,21.69
2018-08-22T07:04:30.474Z,21.72
2018-08-22T07:06:58.287Z,21.86
2018-08-22T07:09:26.083Z,21.95
2018-08-22T07:11:53.868Z,22.04
2018-08-22T07:14:21.645Z,22.12
2018-08-22T07:16:49.436Z,22.38
2018-08-22T07:19:17.179Z,22.38
2018-08-22T07:21:44.980Z,22.43
2018-08-22T07:24:12.771Z,22.63
2018-08-22T07:26:40.470Z,22.61
2018-08-22T07:29:08.224Z,22.73
2018-08-22T07:31:36.066Z,22.74
2018-08-22T07:34:03.916Z,22.95
2018-08-22T07:36:31.680Z,22.98
2018-08-22T07:38:59.456Z,22.98
2018-08-22T07:41:27.293Z,23.24
2018-08-22T07:43:55.143Z,23.36
2018-08-22T07:46:22.936Z,23.46
2018-08-22T07:48:50.679Z,23.41
2018-08-22T07:51:18.537Z,23.59
2018-08-22T07:53:46.301Z,23.61
2018-08-22T07:56:14.148Z,23.72
2018-08-22T07:58:42.003Z,23.81
2018-08-22T08:01:09.849Z,23.81
2018-08-22T08:03:37.658Z,23.88
2018-08-22T08:06:05.655Z,23.94
2018-08-22T08:08:33.474Z,24.00
2018-08-22T08:11:01.394Z,24.16
2018-08-22T08:13:29.639Z,24.15
2018-08-22T08:15:58.120Z,24.21
2018-08-22T08:18:25.916Z,24.33
2018-08-22T08:20:53.700Z,24.34
2018-08-22T08:23:21.495Z,24.36
2018-08-22T08:25:49.292Z,24.44
2018-08-22T08:28:17.014Z,24.72
2018-08-22T08:30:44.841Z,24.77
2018-08-22T08:33:12.662Z,24.84
2018-08-22T08:35:40.468Z,25.00
2018-08-22T08:38:08.404Z,25.05
2018-08-22T08:40:36.227Z,25.13
2018-08-22T08:43:04.073Z,25.22
2018-08-22T08:45:31.866Z,25.23
2018-08-22T08:47:59.693Z,25.35
2018-08-22T08:50:27.483Z,25.47
2018-08-22T08:52:55.341Z,25.54
2018-08-22T08:55:23.188Z,25.50
2018-08-22T08:57:51.020Z,25.52
2018-08-22T09:00:18.797Z,25.67
2018-08-22T09:02:46.608Z,25.88
2018-08-22T09:05:14.485Z,25.98
2018-08-22T09:07:42.237Z,25.97
2018-08-22T09:10:10.032Z,26.02
2018-08-22T09:12:37.995Z,26.04
2018-08-22T09:15:06.634Z,26.10
2018-08-22T09:17:34.409Z,26.19
2018-08-22T09:20:02.300Z,26.11
2018-08-22T09:22:30.058Z,26.26
2018-08-22T09:24:57.887Z,26.33
2018-08-22T09:27:25.633Z,26.39
2018-08-22T09:29:53.490Z,26.39
2018-08-22T09:32:21.172Z,26.47
2018-08-22T09:34:48.955Z,26.61
2018-08-22T09:37:16.772Z,26.73
2018-08-22T09:39:44.645Z,26.77
2018-08-22T09:42:12.319Z,27.01
2018-08-22T09:44:40.104Z,27.26
2018-08-22T09:47:07.903Z,27.80
2018-08-22T09:49:35.712Z,28.22
2018-08-22T09:52:03.540Z,28.37
2018-08-22T09:54:31.959Z,28.67
2018-08-22T09:56:59.856Z,28.51
2018-08-22T09:59:27.635Z,28.61
2018-08-22T10:01:55.592Z,28.73
2018-08-22T10:04:24.085Z,28.75
2018-08-22T10:06:52.053Z,28.73
2018-08-22T10:09:20.951Z,28.74
2018-08-22T10:11:48.793Z,28.91
2018-08-22T10:14:16.505Z,29.00
2018-08-22T10:16:44.252Z,29.07
2018-08-22T10:19:12.083Z,29.12
2018-08-22T10:21:39.776Z,29.16
2018-08-22T10:24:07.580Z,29.25
2018-08-22T10:26:35.403Z,29.24
2018-08-22T10:29:03.143Z,29.29
2018-08-22T10:31:30.955Z,29.35
2018-08-22T10:33:58.728Z,29.41
2018-08-22T10:36:26.512Z,29.63
2018-08-22T10:38:54.275Z,29.75
2018-08-22T10:41:22.012Z,29.84
2018-08-22T10:43:49.879Z,30.10
2018-08-22T10:46:17.604Z,30.08
2018-08-22T10:48:45.396Z,30.18
2018-08-22T10:51:13.237Z,30.29
2018-08-22T10:53:41.022Z,30.41
2018-08-22T10:56:08.812Z,30.59
2018-08-22T10:58:36.643Z,30.77
2018-08-22T11:01:04.452Z,31.12
2018-08-22T11:03:32.204Z,31.17
2018-08-22T11:06:00.057Z,31.50
2018-08-22T11:08:27.787Z,31.94
2018-08-22T11:10:55.647Z,32.25
2018-08-22T11:13:23.438Z,33.05
2018-08-22T11:15:51.354Z,34.31
2018-08-22T11:18:19.036Z,34.51
2018-08-22T11:20:48.567Z,35.40
2018-08-22T11:23:34.161Z,35.88
2018-08-22T11:26:19.387Z,36.90
2018-08-22T11:29:04.464Z,37.52
2018-08-22T11:31:49.500Z,37.86
2018-08-22T11:34:34.571Z,38.25
2018-08-22T11:37:04.784Z,38.75
2018-08-22T11:39:32.639Z,38.39
2018-08-22T11:42:00.680Z,39.19
2018-08-22T11:44:28.895Z,39.28
2018-08-22T11:46:56.687Z,38.82
2018-08-22T11:49:24.472Z,39.20
2018-08-22T11:51:52.235Z,39.54
2018-08-22T11:54:20.140Z,39.64
2018-08-22T11:56:47.964Z,39.56
2018-08-22T11:59:15.831Z,39.68
2018-08-22T12:01:43.683Z,40.31
2018-08-22T12:04:11.434Z,40.29
2018-08-22T12:06:39.416Z,40.35
2018-08-22T12:09:09.136Z,40.56
2018-08-22T12:11:36.896Z,40.52
2018-08-22T12:14:04.743Z,40.50
2018-08-22T12:16:32.573Z,40.55
2018-08-22T12:19:00.525Z,40.70
2018-08-22T12:21:28.369Z,40.96
2018-08-22T12:23:56.100Z,40.56
2018-08-22T12:26:23.889Z,41.01
2018-08-22T12:28:51.672Z,41.25
2018-08-22T12:31:19.500Z,41.01
2018-08-22T12:33:47.205Z,40.75
2018-08-22T12:36:15.055Z,40.65
2018-08-22T12:38:42.936Z,40.71
2018-08-22T12:41:10.792Z,40.36
2018-08-22T12:43:38.612Z,39.94
2018-08-22T12:46:06.420Z,40.28
2018-08-22T12:48:34.255Z,40.40
2018-08-22T12:51:02.123Z,40.36
2018-08-22T12:53:29.964Z,40.36
2018-08-22T12:55:57.737Z,40.52
2018-08-22T12:58:25.670Z,40.05
2018-08-22T13:00:53.451Z,39.99
2018-08-22T13:03:21.381Z,39.69
2018-08-22T13:05:49.185Z,39.67
2018-08-22T13:08:17.084Z,39.15
2018-08-22T13:10:44.877Z,39.02
2018-08-22T13:13:12.658Z,38.84
2018-08-22T13:15:40.460Z,38.91
2018-08-22T13:18:08.231Z,38.77
2018-08-22T13:20:36.000Z,38.75
2018-08-22T13:23:03.995Z,38.72
2018-08-22T13:25:31.868Z,38.62
2018-08-22T13:27:59.699Z,38.64
2018-08-22T13:30:27.592Z,38.48
2018-08-22T13:32:55.364Z,38.41
2018-08-22T13:35:23.142Z,38.27
2018-08-22T13:37:50.908Z,38.03
2018-08-22T13:40:18.731Z,37.70
2018-08-22T13:42:46.464Z,37.49
2018-08-22T13:45:14.283Z,37.39
2018-08-22T13:47:42.149Z,37.37
2018-08-22T13:50:09.916Z,37.29
2018-08-22T13:52:37.723Z,36.99
2018-08-22T13:55:05.780Z,36.75
2018-08-22T13:57:33.590Z,36.56
2018-08-22T14:00:01.390Z,36.33
2018-08-22T14:02:29.163Z,36.03
2018-08-22T14:04:56.932Z,35.90
2018-08-22T14:07:24.767Z,35.59
2018-08-22T14:09:52.527Z,35.54
2018-08-22T14:12:20.296Z,35.55
2018-08-22T14:14:48.082Z,35.49
2018-08-22T14:17:15.854Z,35.12
2018-08-22T14:19:43.668Z,35.21
2018-08-22T14:22:11.383Z,35.11
2018-08-22T14:24:39.198Z,35.11
2018-08-22T14:27:06.956Z,35.05
2018-08-22T14:29:34.671Z,34.94
2018-08-22T14:32:02.523Z,34.85
2018-08-22T14:34:30.268Z,34.92
2018-08-22T14:36:58.072Z,34.92
2018-08-22T14:39:26.063Z,34.80
2018-08-22T14:41:53.735Z,34.79
2018-08-22T14:44:21.571Z,34.75
2018-08-22T14:46:49.361Z,34.75
2018-08-22T14:49:17.176Z,34.65
2018-08-22T14:51:44.895Z,34.59
2018-08-22T14:54:12.732Z,34.60
2018-08-22T14:56:40.459Z,34.65
2018-08-22T14:59:08.327Z,34.47
2018-08-22T15:01:36.197Z,34.47
2018-08-22T15:04:04.077Z,34.48
2018-08-22T15:06:31.828Z,34.53
2018-08-22T15:09:05.411Z,34.45
2018-08-22T15:11:34.857Z,34.46
2018-08-22T15:14:03.121Z,34.36
2018-08-22T15:16:31.301Z,34.40
2018-08-22T15:18:59.168Z,34.32
2018-08-22T15:21:26.961Z,34.09
2018-08-22T15:23:54.976Z,34.08
2018-08-22T15:26:23.619Z,33.88
2018-08-22T15:28:57.595Z,33.94
2018-08-22T15:31:25.395Z,33.90
2018-08-22T15:33:53.138Z,33.80
2018-08-22T15:36:21.327Z,33.82
2018-08-22T15:38:49.199Z,33.72
2018-08-22T15:41:17.316Z,33.76
2018-08-22T15:43:45.148Z,33.77
2018-08-22T15:46:13.008Z,33.74
2018-08-22T15:48:40.812Z,33.60
2018-08-22T15:51:08.704Z,33.57
2018-08-22T15:53:36.503Z,33.60
2018-08-22T15:56:04.367Z,33.61
2018-08-22T15:58:32.204Z,33.44
2018-08-22T16:00:59.973Z,33.53
2018-08-22T16:03:27.769Z,33.42
2018-08-22T16:05:56.319Z,33.40
2018-08-22T16:08:25.430Z,33.44
2018-08-22T16:10:54.385Z,33.42
2018-08-22T16:13:29.359Z,33.33
2018-08-22T16:15:59.359Z,33.22
2018-08-22T16:18:27.251Z,33.23
2018-08-22T16:20:56.166Z,33.18
2018-08-22T16:23:31.737Z,33.23
2018-08-22T16:26:01.180Z,33.25
2018-08-22T16:28:47.839Z,33.20
2018-08-22T16:31:15.955Z,33.14
2018-08-22T16:33:43.702Z,33.11
2018-08-22T16:36:18.695Z,33.01
2018-08-22T16:38:46.559Z,32.87
2018-08-22T16:41:15.952Z,32.90
2018-08-22T16:43:44.543Z,32.92
2018-08-22T16:46:14.228Z,32.87
2018-08-22T16:48:43.231Z,32.83
2018-08-22T16:51:11.032Z,32.75
2018-08-22T16:53:38.769Z,32.67
2018-08-22T16:56:06.720Z,32.66
2018-08-22T16:58:34.537Z,32.58
2018-08-22T17:01:02.336Z,32.53
2018-08-22T17:03:30.175Z,32.53
2018-08-22T17:06:05.410Z,32.50
2018-08-22T17:08:35.047Z,32.43
2018-08-22T17:11:11.274Z,32.36
2018-08-22T17:13:49.432Z,32.28
2018-08-22T17:16:17.291Z,32.23
2018-08-22T17:18:45.100Z,32.16
2018-08-22T17:21:12.935Z,32.15
2018-08-22T17:23:41.111Z,32.02
2018-08-22T17:26:12.959Z,32.01
2018-08-22T17:28:44.455Z,31.96
2018-08-22T17:31:12.887Z,31.94
2018-08-22T17:33:55.344Z,31.81
2018-08-22T17:36:29.271Z,31.77
2018-08-22T17:39:05.278Z,31.69
2018-08-22T17:41:33.668Z,31.63
2018-08-22T17:44:11.889Z,31.52
2018-08-22T17:46:47.664Z,31.34
2018-08-22T17:49:15.684Z,31.25
2018-08-22T17:52:04.276Z,31.18
2018-08-22T17:54:33.409Z,31.13
2018-08-22T17:57:20.414Z,31.06
2018-08-22T17:59:48.301Z,30.90
2018-08-22T18:02:16.187Z,30.83
2018-08-22T18:07:23.237Z,30.62
2018-08-22T18:09:51.237Z,30.52
2018-08-22T18:12:22.128Z,30.42
2018-08-22T18:14:49.910Z,30.27
2018-08-22T18:17:19.264Z,30.24
2018-08-22T18:19:47.754Z,30.17
2018-08-22T18:22:15.911Z,29.99
2018-08-22T18:24:56.262Z,29.98
2018-08-22T18:27:24.646Z,29.89
2018-08-22T18:29:52.319Z,29.91
2018-08-22T18:32:20.119Z,29.77
2018-08-22T18:35:06.152Z,29.53
2018-08-22T18:37:34.339Z,29.25
2018-08-22T18:40:23.363Z,29.09
2018-08-22T18:42:56.119Z,29.03
2018-08-22T18:45:33.246Z,28.88
2018-08-22T18:48:03.025Z,28.76
2018-08-22T18:50:31.081Z,28.69
2018-08-22T18:53:00.296Z,28.55
2018-08-22T18:55:33.138Z,28.79
2018-08-22T18:58:03.869Z,28.83
2018-08-22T19:00:36.567Z,28.80
2018-08-22T19:03:05.240Z,28.60
2018-08-22T19:05:35.713Z,28.61
2018-08-22T19:08:15.137Z,28.20
2018-08-22T19:10:45.220Z,28.01
2018-08-22T19:13:16.005Z,28.10
2018-08-22T19:15:53.509Z,28.06
2018-08-22T19:18:26.177Z,27.68
2018-08-22T19:20:57.126Z,27.59
2018-08-22T19:23:25.010Z,27.52
2018-08-22T19:25:55.919Z,27.36
2018-08-22T19:28:23.775Z,27.39
2018-08-22T19:30:54.596Z,27.30
2018-08-22T19:33:27.146Z,27.49
2018-08-22T19:36:02.852Z,27.53
2018-08-22T19:38:32.214Z,27.38
2018-08-22T19:41:18.868Z,27.20
2018-08-22T19:43:46.700Z,27.01
2018-08-22T19:46:14.589Z,27.09
2018-08-22T19:48:42.343Z,27.10
2018-08-22T19:51:10.790Z,26.95
2018-08-22T19:53:57.556Z,26.96
2018-08-22T19:56:26.299Z,26.76
2018-08-22T19:58:54.767Z,26.79
2018-08-22T20:01:22.575Z,26.59
2018-08-22T20:03:55.742Z,26.49
2018-08-22T20:06:25.522Z,26.43
2018-08-22T20:08:55.820Z,26.25
2018-08-22T20:11:23.937Z,26.13
2018-08-22T20:14:00.839Z,26.10
2018-08-22T20:16:30.555Z,26.10
2018-08-22T20:18:59.619Z,25.85
2018-08-22T20:21:34.147Z,25.78
2018-08-22T20:24:03.383Z,25.69
2018-08-22T20:26:33.856Z,25.49
2018-08-22T20:29:03.671Z,25.37
2018-08-22T20:31:34.793Z,25.28
2018-08-22T20:34:07.388Z,25.19
2018-08-22T20:36:39.775Z,25.28
2018-08-22T20:39:11.235Z,25.20
2018-08-22T20:41:40.584Z,25.09
2018-08-22T20:44:18.133Z,25.10
2018-08-22T20:46:47.339Z,25.04
2018-08-22T20:49:18.634Z,24.90
2018-08-22T20:51:46.764Z,24.76
2018-08-22T20:54:22.462Z,24.84
2018-08-22T20:56:56.585Z,24.71
2018-08-22T20:59:24.543Z,24.94
2018-08-22T21:02:01.815Z,24.72
2018-08-22T21:04:32.715Z,24.77
2018-08-22T21:07:06.505Z,24.47
2018-08-22T21:09:38.042Z,24.57
2018-08-22T21:12:05.827Z,24.57
2018-08-22T21:14:33.646Z,24.54
2018-08-22T21:17:05.300Z,24.47
2018-08-22T21:19:33.155Z,24.40
2018-08-22T21:22:01.077Z,24.37
2018-08-22T21:24:28.878Z,24.24
2018-08-22T21:27:02.932Z,24.18
2018-08-22T21:29:34.066Z,24.11
2018-08-22T21:32:01.993Z,24.17
2018-08-22T21:34:31.723Z,24.12
2018-08-22T21:37:02.172Z,24.05
2018-08-22T21:39:37.059Z,24.08
2018-08-22T21:42:05.371Z,23.91
2018-08-22T21:44:33.267Z,23.89
2018-08-22T21:47:06.785Z,23.82
2018-08-22T21:49:34.555Z,23.72
2018-08-22T21:52:02.409Z,23.70
2018-08-22T21:54:32.743Z,23.61
2018-08-22T21:57:03.765Z,23.58
2018-08-22T21:59:31.687Z,23.50
2018-08-22T22:02:06.234Z,23.41
2018-08-22T22:04:38.436Z,23.35
2018-08-22T22:07:09.304Z,23.30
2018-08-22T22:09:40.401Z,23.37
2018-08-22T22:12:17.182Z,23.25
2018-08-22T22:14:46.244Z,23.22
2018-08-22T22:17:14.049Z,23.12
2018-08-22T22:19:41.888Z,23.19
2018-08-22T22:22:09.729Z,22.86
2018-08-22T22:24:56.101Z,23.00
2018-08-22T22:27:24.461Z,23.02
2018-08-22T22:30:01.714Z,23.15
2018-08-22T22:32:29.947Z,23.03
2018-08-22T22:34:57.824Z,22.78
2018-08-22T22:37:25.711Z,22.76
2018-08-22T22:39:53.455Z,22.90
2018-08-22T22:42:25.106Z,22.86
2018-08-22T22:44:54.816Z,22.72
2018-08-22T22:47:28.575Z,22.74
2018-08-22T22:50:00.075Z,22.62
2018-08-22T22:52:35.232Z,22.52
2018-08-22T22:55:07.673Z,22.48
2018-08-22T22:57:36.912Z,22.44
2018-08-22T23:00:07.824Z,22.38
2018-08-22T23:02:35.647Z,22.24
2018-08-22T23:05:03.552Z,22.13
2018-08-22T23:07:35.167Z,22.05
2018-08-22T23:10:08.321Z,21.99
2018-08-22T23:12:38.016Z,21.99
2018-08-22T23:15:09.308Z,21.91
2018-08-22T23:17:37.280Z,21.94
2018-08-22T23:20:46.027Z,21.90
2018-08-22T23:23:27.355Z,21.84
2018-08-22T23:25:57.757Z,21.77
2018-08-22T23:28:25.577Z,21.72
2018-08-22T23:30:53.414Z,21.80
2018-08-22T23:33:21.720Z,21.78
2018-08-22T23:35:50.103Z,21.64
2018-08-22T23:38:26.464Z,21.70
2018-08-22T23:40:54.263Z,21.77
2018-08-22T23:43:22.271Z,21.82
2018-08-22T23:45:54.338Z,21.78
2018-08-22T23:48:27.796Z,21.67
2018-08-22T23:50:59.739Z,21.58
2018-08-22T23:53:30.180Z,21.56
2018-08-22T23:56:16.159Z,21.48
2018-08-22T23:58:44.942Z,21.48
